Time;durP1;ratioP1;P1;durP2;ratioP2;P2;SDS_P1;SDS_P2;PMS_P1;PMS_P2;Temp;Humidity;BMP_temperature;BMP_pressure;BME280_temperature;BME280_humidity;BME280_pressure;Samples;Min_cycle;Max_cycle;Signal;HPM_P1;HPM_P2
2022/07/09 00:01:58;;;;;;;9.75;6.40;;;;;;;;;;5043045;28;20060;-68
2022/07/09 00:04:24;;;;;;;9.82;6.78;;;;;;;;;;5039501;28;20041;-67
2022/07/09 00:06:49;;;;;;;10.05;7.00;;;;;;;;;;5050194;28;20037;-67
2022/07/09 00:09:15;;;;;;;10.52;7.18;;;;;;;;;;5044073;28;20482;-68
2022/07/09 00:11:41;;;;;;;9.98;6.78;;;;;;;;;;5044793;28;20123;-67
2022/07/09 00:14:07;;;;;;;7.88;7.18;;;;;;;;;;5042716;28;20416;-67
2022/07/09 00:16:32;;;;;;;10.50;7.05;;;;;;;;;;5045599;28;20068;-67
2022/07/09 00:18:58;;;;;;;10.13;7.22;;;;;;;;;;5043188;28;20044;-66
2022/07/09 00:21:23;;;;;;;8.43;6.60;;;;;;;;;;5045275;28;20075;-67
2022/07/09 00:23:49;;;;;;;8.13;7.43;;;;;;;;;;5042521;28;20068;-67
2022/07/09 00:26:15;;;;;;;8.38;6.80;;;;;;;;;;5045334;28;20065;-67
2022/07/09 00:28:41;;;;;;;10.07;7.07;;;;;;;;;;5041266;28;20052;-66
2022/07/09 00:31:07;;;;;;;7.50;6.72;;;;;;;;;;5044153;28;20071;-67
2022/07/09 00:33:33;;;;;;;7.80;7.00;;;;;;;;;;5041904;28;20047;-67
2022/07/09 00:35:58;;;;;;;11.82;6.97;;;;;;;;;;5045065;28;20483;-66
2022/07/09 00:38:24;;;;;;;7.75;6.95;;;;;;;;;;5044458;28;20036;-67
2022/07/09 00:40:50;;;;;;;9.75;7.40;;;;;;;;;;5041471;28;20033;-67
2022/07/09 00:43:18;;;;;;;7.70;7.00;;;;;;;;;;5041374;28;20484;-67
2022/07/09 00:45:44;;;;;;;7.28;6.55;;;;;;;;;;5041501;28;20041;-67
2022/07/09 00:48:10;;;;;;;8.23;7.35;;;;;;;;;;5050373;28;20077;-66
2022/07/09 00:50:36;;;;;;;9.43;6.65;;;;;;;;;;5047505;28;20041;-66
2022/07/09 00:53:02;;;;;;;8.95;7.13;;;;;;;;;;5044518;28;20117;-67
2022/07/09 00:55:28;;;;;;;7.53;6.75;;;;;;;;;;5040201;28;20116;-67
2022/07/09 00:57:54;;;;;;;8.68;6.70;;;;;;;;;;5044592;28;20072;-67
2022/07/09 01:00:20;;;;;;;7.68;6.88;;;;;;;;;;5035713;28;20044;-67
2022/07/09 01:02:48;;;;;;;10.18;7.03;;;;;;;;;;5046310;28;20087;-67
2022/07/09 01:05:14;;;;;;;7.30;6.60;;;;;;;;;;5040950;28;20370;-67
2022/07/09 01:07:40;;;;;;;12.70;6.80;;;;;;;;;;5037191;28;20295;-67
2022/07/09 01:10:06;;;;;;;9.15;7.07;;;;;;;;;;5036460;28;20045;-67
2022/07/09 01:12:32;;;;;;;12.00;6.88;;;;;;;;;;5048971;28;20067;-68
2022/07/09 01:14:58;;;;;;;10.02;7.03;;;;;;;;;;5047953;28;20065;-67
2022/07/09 01:17:23;;;;;;;9.57;6.63;;;;;;;;;;5044572;28;20302;-67
2022/07/09 01:19:49;;;;;;;8.50;7.60;;;;;;;;;;5049387;28;20065;-67
2022/07/09 01:22:14;;;;;;;14.13;7.53;;;;;;;;;;5046014;28;20040;-66
2022/07/09 01:24:40;;;;;;;9.18;7.30;;;;;;;;;;5047819;28;20029;-68
2022/07/09 01:27:07;;;;;;;8.00;7.20;;;;;;;;;;5039740;28;20504;-67
2022/07/09 01:29:33;;;;;;;8.60;7.35;;;;;;;;;;5047224;28;20257;-67
2022/07/09 01:31:59;;;;;;;8.48;7.00;;;;;;;;;;5042323;28;20055;-66
2022/07/09 01:34:24;;;;;;;7.93;7.10;;;;;;;;;;5048018;28;20087;-66
2022/07/09 01:36:50;;;;;;;9.30;6.78;;;;;;;;;;5038792;28;20599;-66
2022/07/09 01:39:16;;;;;;;10.35;6.97;;;;;;;;;;5050973;28;20347;-66
2022/07/09 01:41:41;;;;;;;8.10;7.15;;;;;;;;;;5048511;28;20078;-66
2022/07/09 01:44:08;;;;;;;8.45;7.32;;;;;;;;;;5048818;28;20047;-66
2022/07/09 01:46:34;;;;;;;10.88;7.03;;;;;;;;;;5042742;28;20060;-66
2022/07/09 01:49:00;;;;;;;7.72;6.93;;;;;;;;;;5046822;28;20090;-66
2022/07/09 01:51:26;;;;;;;7.43;6.72;;;;;;;;;;5049006;28;20024;-68
2022/07/09 01:53:51;;;;;;;7.70;7.00;;;;;;;;;;5045127;28;20419;-67
2022/07/09 01:56:17;;;;;;;9.68;6.75;;;;;;;;;;5051321;28;20033;-66
2022/07/09 01:58:44;;;;;;;12.93;7.20;;;;;;;;;;5046948;28;20097;-66
2022/07/09 02:01:09;;;;;;;8.38;6.95;;;;;;;;;;5043307;28;20483;-66
2022/07/09 02:03:35;;;;;;;8.23;7.30;;;;;;;;;;5046184;28;20037;-67
2022/07/09 02:06:00;;;;;;;9.18;7.15;;;;;;;;;;5047205;28;20430;-66
2022/07/09 02:08:27;;;;;;;9.63;7.30;;;;;;;;;;5041961;28;20031;-67
2022/07/09 02:10:54;;;;;;;11.73;7.28;;;;;;;;;;5044136;28;20037;-66
2022/07/09 02:13:20;;;;;;;7.78;6.78;;;;;;;;;;5043569;28;20577;-66
2022/07/09 02:15:45;;;;;;;11.00;7.45;;;;;;;;;;5048926;28;20120;-66
2022/07/09 02:18:12;;;;;;;9.10;6.78;;;;;;;;;;5045885;28;20075;-66
2022/07/09 02:20:38;;;;;;;7.80;7.03;;;;;;;;;;5047128;28;20116;-66
2022/07/09 02:23:03;;;;;;;8.48;6.88;;;;;;;;;;5046344;28;20041;-66
2022/07/09 02:25:29;;;;;;;8.35;6.82;;;;;;;;;;5049893;28;20036;-66
2022/07/09 02:27:55;;;;;;;9.30;7.10;;;;;;;;;;5042965;28;20029;-66
2022/07/09 02:30:20;;;;;;;10.73;7.22;;;;;;;;;;5045555;28;20044;-65
2022/07/09 02:32:46;;;;;;;10.65;6.93;;;;;;;;;;5039701;28;20028;-66
2022/07/09 02:35:12;;;;;;;8.98;6.90;;;;;;;;;;5031620;28;20124;-66
2022/07/09 02:37:37;;;;;;;9.77;7.15;;;;;;;;;;5046292;28;20484;-66
2022/07/09 02:40:04;;;;;;;8.27;7.47;;;;;;;;;;5043919;28;20049;-67
2022/07/09 02:42:30;;;;;;;8.50;7.30;;;;;;;;;;5044275;28;20447;-67
2022/07/09 02:44:55;;;;;;;8.20;7.40;;;;;;;;;;5042195;28;20560;-67
2022/07/09 02:47:21;;;;;;;8.25;7.20;;;;;;;;;;5044536;28;20455;-67
2022/07/09 02:49:47;;;;;;;12.07;7.60;;;;;;;;;;5052156;28;20032;-67
2022/07/09 02:52:12;;;;;;;9.73;7.40;;;;;;;;;;5035080;28;20032;-67
2022/07/09 02:54:38;;;;;;;8.20;7.40;;;;;;;;;;5044553;28;20496;-65
2022/07/09 02:57:04;;;;;;;8.82;7.70;;;;;;;;;;5045960;28;20093;-66
2022/07/09 02:59:29;;;;;;;8.50;7.72;;;;;;;;;;5039526;28;20095;-66
2022/07/09 03:01:55;;;;;;;9.27;7.50;;;;;;;;;;5040853;28;20051;-66
2022/07/09 03:04:20;;;;;;;7.80;7.00;;;;;;;;;;5045317;28;20028;-66
2022/07/09 03:06:47;;;;;;;8.27;7.10;;;;;;;;;;5047616;28;20037;-66
2022/07/09 03:09:13;;;;;;;7.82;7.13;;;;;;;;;;5042912;28;20052;-66
2022/07/09 03:11:38;;;;;;;9.27;7.05;;;;;;;;;;5045199;28;20124;-67
2022/07/09 03:14:04;;;;;;;8.10;7.28;;;;;;;;;;5043723;28;20507;-65
2022/07/09 03:16:29;;;;;;;9.60;7.13;;;;;;;;;;5050135;28;20036;-65
2022/07/09 03:18:55;;;;;;;8.18;7.20;;;;;;;;;;5052742;28;20127;-65
2022/07/09 03:21:20;;;;;;;10.70;7.30;;;;;;;;;;5042282;28;20515;-65
2022/07/09 03:23:46;;;;;;;8.00;7.30;;;;;;;;;;5041012;28;20040;-65
2022/07/09 03:26:12;;;;;;;9.32;7.30;;;;;;;;;;5045110;28;20028;-65
2022/07/09 03:28:38;;;;;;;9.70;7.45;;;;;;;;;;5051694;28;20052;-65
2022/07/09 03:31:04;;;;;;;7.78;7.03;;;;;;;;;;5043787;28;20065;-65
2022/07/09 03:33:29;;;;;;;8.77;7.70;;;;;;;;;;5048920;28;20663;-65
2022/07/09 03:35:55;;;;;;;10.02;7.38;;;;;;;;;;5042278;28;20033;-65
2022/07/09 03:38:21;;;;;;;9.88;7.97;;;;;;;;;;5053297;28;20123;-65
2022/07/09 03:40:47;;;;;;;8.57;7.47;;;;;;;;;;5042112;28;20562;-65
2022/07/09 03:43:12;;;;;;;10.65;7.22;;;;;;;;;;5047711;28;20036;-65
2022/07/09 03:45:38;;;;;;;9.50;7.97;;;;;;;;;;5042090;28;20091;-65
2022/07/09 03:48:04;;;;;;;9.50;7.72;;;;;;;;;;5046362;28;20033;-65
2022/07/09 03:50:29;;;;;;;8.05;7.28;;;;;;;;;;5038129;28;20035;-64
2022/07/09 03:52:55;;;;;;;13.30;7.35;;;;;;;;;;5044196;28;20047;-64
2022/07/09 03:55:21;;;;;;;8.75;7.07;;;;;;;;;;5036956;28;20408;-65
2022/07/09 03:57:46;;;;;;;8.85;7.50;;;;;;;;;;5046196;28;20033;-65
2022/07/09 04:00:12;;;;;;;8.48;6.90;;;;;;;;;;5044166;28;20083;-66
2022/07/09 04:02:38;;;;;;;9.10;7.57;;;;;;;;;;5045493;28;20631;-65
2022/07/09 04:05:04;;;;;;;10.18;7.00;;;;;;;;;;5050185;28;20158;-64
2022/07/09 04:07:30;;;;;;;9.18;7.40;;;;;;;;;;5044829;28;20099;-65
2022/07/09 04:09:56;;;;;;;8.27;7.00;;;;;;;;;;5042261;28;20314;-65
2022/07/09 04:12:22;;;;;;;8.40;7.18;;;;;;;;;;5044638;28;20056;-65
2022/07/09 04:14:48;;;;;;;12.57;7.18;;;;;;;;;;5043762;28;20094;-65
2022/07/09 04:17:13;;;;;;;8.52;7.22;;;;;;;;;;5046434;28;20033;-66
2022/07/09 04:19:39;;;;;;;11.50;7.32;;;;;;;;;;5043260;28;20082;-64
2022/07/09 04:22:05;;;;;;;9.25;6.93;;;;;;;;;;5041923;28;20421;-64
2022/07/09 04:24:30;;;;;;;9.73;7.32;;;;;;;;;;5050793;28;20029;-65
2022/07/09 04:26:56;;;;;;;8.07;6.80;;;;;;;;;;5048493;28;20060;-66
2022/07/09 04:29:22;;;;;;;9.10;7.03;;;;;;;;;;5048978;28;20033;-66
2022/07/09 04:31:48;;;;;;;7.32;6.65;;;;;;;;;;5042220;28;20040;-64
2022/07/09 04:34:14;;;;;;;7.43;6.70;;;;;;;;;;5044364;28;20041;-64
2022/07/09 04:36:39;;;;;;;7.32;6.55;;;;;;;;;;5045388;28;20039;-66
2022/07/09 04:39:05;;;;;;;9.05;6.65;;;;;;;;;;5044005;28;20500;-66
2022/07/09 04:41:31;;;;;;;13.57;6.65;;;;;;;;;;5042731;28;20310;-66
2022/07/09 04:43:56;;;;;;;7.10;6.40;;;;;;;;;;5045670;28;20037;-66
2022/07/09 04:46:22;;;;;;;7.10;6.40;;;;;;;;;;5049948;28;20216;-65
2022/07/09 04:48:51;;;;;;;9.38;6.75;;;;;;;;;;5047547;28;20029;-64
2022/07/09 04:51:16;;;;;;;7.13;6.32;;;;;;;;;;5040600;28;20033;-64
2022/07/09 04:53:42;;;;;;;8.93;7.00;;;;;;;;;;5045012;28;20459;-64
2022/07/09 04:56:08;;;;;;;7.28;6.60;;;;;;;;;;5050402;28;20036;-64
2022/07/09 04:58:34;;;;;;;9.30;7.13;;;;;;;;;;5043853;28;20106;-64
2022/07/09 05:00:59;;;;;;;8.80;6.78;;;;;;;;;;5044226;28;20033;-65
2022/07/09 05:03:25;;;;;;;7.20;6.60;;;;;;;;;;5047324;28;20029;-65
2022/07/09 05:05:52;;;;;;;8.70;7.88;;;;;;;;;;5044657;28;20076;-65
2022/07/09 05:08:18;;;;;;;9.90;7.00;;;;;;;;;;5052103;28;20036;-65
2022/07/09 05:10:44;;;;;;;9.88;7.03;;;;;;;;;;5050955;28;20435;-65
2022/07/09 05:13:10;;;;;;;10.88;7.35;;;;;;;;;;5045437;28;20504;-65
2022/07/09 05:15:35;;;;;;;7.40;6.80;;;;;;;;;;5048788;28;20162;-65
2022/07/09 05:18:01;;;;;;;7.60;6.93;;;;;;;;;;5040201;28;20038;-65
2022/07/09 05:20:27;;;;;;;8.35;6.55;;;;;;;;;;5051852;28;20035;-65
2022/07/09 05:22:52;;;;;;;7.18;6.47;;;;;;;;;;5045084;28;20037;-65
2022/07/09 05:25:18;;;;;;;7.03;6.40;;;;;;;;;;5048689;28;20044;-65
2022/07/09 05:27:45;;;;;;;7.18;6.20;;;;;;;;;;5045448;28;20552;-65
2022/07/09 05:30:15;;;;;;;6.90;6.30;;;;;;;;;;5046341;28;20021;-65
2022/07/09 05:32:42;;;;;;;8.75;6.68;;;;;;;;;;5044083;28;20037;-65
2022/07/09 05:35:08;;;;;;;9.32;6.57;;;;;;;;;;5044425;28;20392;-65
2022/07/09 05:37:40;;;;;;;7.00;6.43;;;;;;;;;;5048517;28;20048;-65
2022/07/09 05:40:06;;;;;;;11.45;6.78;;;;;;;;;;5047421;28;20123;-65
2022/07/09 05:42:32;;;;;;;7.22;5.95;;;;;;;;;;5040664;28;20040;-65
2022/07/09 05:44:59;;;;;;;7.07;6.30;;;;;;;;;;5046772;28;20140;-65
2022/07/09 05:47:25;;;;;;;7.53;6.85;;;;;;;;;;5051049;28;20066;-65
2022/07/09 05:49:50;;;;;;;7.32;6.55;;;;;;;;;;5043213;28;20037;-65
2022/07/09 05:52:16;;;;;;;8.07;6.60;;;;;;;;;;5037063;28;20525;-65
2022/07/09 05:54:41;;;;;;;7.45;6.72;;;;;;;;;;5042434;28;20110;-65
2022/07/09 05:57:07;;;;;;;6.85;6.25;;;;;;;;;;5050129;28;20032;-65
2022/07/09 05:59:32;;;;;;;6.70;6.07;;;;;;;;;;5041398;28;20037;-66
2022/07/09 06:01:58;;;;;;;10.25;6.60;;;;;;;;;;5045054;28;20103;-66
2022/07/09 06:04:24;;;;;;;7.03;6.05;;;;;;;;;;5040779;28;20057;-66
2022/07/09 06:06:49;;;;;;;6.70;6.10;;;;;;;;;;5046873;28;20045;-65
2022/07/09 06:09:15;;;;;;;8.30;5.82;;;;;;;;;;5047551;28;20056;-65
2022/07/09 06:11:40;;;;;;;6.72;6.00;;;;;;;;;;5049705;28;20403;-65
2022/07/09 06:14:06;;;;;;;9.40;6.10;;;;;;;;;;5047147;28;20040;-65
2022/07/09 06:16:31;;;;;;;7.78;6.15;;;;;;;;;;5045039;28;20060;-65
2022/07/09 06:18:57;;;;;;;7.78;5.68;;;;;;;;;;5043430;28;20377;-65
2022/07/09 06:21:22;;;;;;;6.70;5.90;;;;;;;;;;5048085;28;20090;-65
2022/07/09 06:23:48;;;;;;;6.55;5.90;;;;;;;;;;5043256;28;20061;-65
2022/07/09 06:26:14;;;;;;;6.82;5.70;;;;;;;;;;5049406;28;20033;-64
2022/07/09 06:28:39;;;;;;;8.55;6.00;;;;;;;;;;5046979;28;20033;-65
2022/07/09 06:31:05;;;;;;;6.78;6.03;;;;;;;;;;5044006;28;20045;-64
2022/07/09 06:33:30;;;;;;;6.40;5.75;;;;;;;;;;5048200;28;20475;-65
2022/07/09 06:35:56;;;;;;;8.60;6.30;;;;;;;;;;5039523;28;20047;-65
2022/07/09 06:38:22;;;;;;;6.70;6.07;;;;;;;;;;5045827;28;20120;-64
2022/07/09 06:40:47;;;;;;;7.00;6.30;;;;;;;;;;5038215;28;20033;-64
2022/07/09 06:43:13;;;;;;;5.97;5.40;;;;;;;;;;5044725;28;20098;-64
2022/07/09 06:45:52;;;;;;;6.32;5.70;;;;;;;;;;5034683;28;20032;-65
2022/07/09 06:48:17;;;;;;;7.38;5.30;;;;;;;;;;5046143;28;20463;-65
2022/07/09 06:50:43;;;;;;;6.18;5.38;;;;;;;;;;5043315;28;20619;-65
2022/07/09 06:53:09;;;;;;;7.80;5.80;;;;;;;;;;5049937;28;20033;-65
2022/07/09 06:55:34;;;;;;;7.22;5.85;;;;;;;;;;5043811;28;20447;-65
2022/07/09 06:58:00;;;;;;;6.65;5.95;;;;;;;;;;5050389;28;20036;-65
2022/07/09 07:00:26;;;;;;;8.13;5.95;;;;;;;;;;5043693;28;20554;-65
2022/07/09 07:02:51;;;;;;;6.65;6.00;;;;;;;;;;5043736;28;20033;-65
2022/07/09 07:05:17;;;;;;;6.88;6.18;;;;;;;;;;5046428;28;20071;-65
2022/07/09 07:07:42;;;;;;;7.22;5.55;;;;;;;;;;5043361;28;20044;-65
2022/07/09 07:10:08;;;;;;;8.95;6.30;;;;;;;;;;5052752;28;20040;-65
2022/07/09 07:12:34;;;;;;;6.50;5.90;;;;;;;;;;5044266;28;20068;-65
2022/07/09 07:15:00;;;;;;;6.25;5.70;;;;;;;;;;5045929;28;20037;-65
2022/07/09 07:17:25;;;;;;;9.20;5.70;;;;;;;;;;5043723;28;20035;-65
2022/07/09 07:19:51;;;;;;;8.18;6.07;;;;;;;;;;5047498;28;20044;-65
2022/07/09 07:22:16;;;;;;;6.60;5.88;;;;;;;;;;5040073;28;20041;-65
2022/07/09 07:24:42;;;;;;;7.28;6.57;;;;;;;;;;5045763;28;20132;-65
2022/07/09 07:27:08;;;;;;;7.75;5.57;;;;;;;;;;5041284;28;20036;-65
2022/07/09 07:29:33;;;;;;;8.38;5.30;;;;;;;;;;5039589;28;20090;-65
2022/07/09 07:31:59;;;;;;;6.97;5.47;;;;;;;;;;5047644;28;20315;-65
2022/07/09 07:34:25;;;;;;;7.95;5.75;;;;;;;;;;5046066;28;20032;-65
2022/07/09 07:36:51;;;;;;;7.53;5.25;;;;;;;;;;5034614;28;20038;-65
2022/07/09 07:39:18;;;;;;;7.07;5.50;;;;;;;;;;5043803;28;20125;-65
2022/07/09 07:41:44;;;;;;;7.50;4.88;;;;;;;;;;5045443;28;20086;-65
2022/07/09 07:44:10;;;;;;;6.60;5.50;;;;;;;;;;5039149;28;20041;-65
2022/07/09 07:46:35;;;;;;;6.53;5.32;;;;;;;;;;5041645;28;20492;-65
2022/07/09 07:49:01;;;;;;;6.70;5.22;;;;;;;;;;5050806;28;20102;-65
2022/07/09 07:51:26;;;;;;;8.23;5.35;;;;;;;;;;5042518;28;20111;-65
2022/07/09 07:53:52;;;;;;;6.85;5.53;;;;;;;;;;5045336;28;20492;-65
2022/07/09 07:56:18;;;;;;;9.23;5.53;;;;;;;;;;5046174;28;20024;-65
2022/07/09 07:58:44;;;;;;;5.80;5.25;;;;;;;;;;5040470;28;20138;-65
2022/07/09 08:01:09;;;;;;;8.32;5.28;;;;;;;;;;5045294;28;20064;-65
2022/07/09 08:03:35;;;;;;;6.85;5.20;;;;;;;;;;5040342;28;20080;-65
2022/07/09 08:06:00;;;;;;;10.57;5.60;;;;;;;;;;5045878;28;20029;-65
2022/07/09 08:08:26;;;;;;;11.55;5.50;;;;;;;;;;5041789;28;20687;-65
2022/07/09 08:10:52;;;;;;;6.07;5.50;;;;;;;;;;5033644;28;20595;-65
2022/07/09 08:13:18;;;;;;;5.93;5.15;;;;;;;;;;5031874;28;20304;-65
2022/07/09 08:15:44;;;;;;;5.78;5.00;;;;;;;;;;5045579;28;20043;-65
2022/07/09 08:18:12;;;;;;;6.38;4.97;;;;;;;;;;5046703;28;20047;-65
2022/07/09 08:20:42;;;;;;;8.52;5.45;;;;;;;;;;5033416;28;20069;-65
2022/07/09 08:23:08;;;;;;;9.43;5.80;;;;;;;;;;5033364;28;20422;-65
2022/07/09 08:25:33;;;;;;;7.72;5.28;;;;;;;;;;5043155;28;20041;-65
2022/07/09 08:27:59;;;;;;;6.15;5.00;;;;;;;;;;5043404;28;20049;-65
2022/07/09 08:30:25;;;;;;;5.60;5.03;;;;;;;;;;5041096;28;20040;-65
2022/07/09 08:32:53;;;;;;;4.80;4.47;;;;;;;;;;5048026;28;20040;-65
2022/07/09 08:35:19;;;;;;;6.97;5.00;;;;;;;;;;5042306;28;20035;-65
2022/07/09 08:37:44;;;;;;;6.63;5.13;;;;;;;;;;5043523;28;20561;-65
2022/07/09 08:40:10;;;;;;;7.97;4.88;;;;;;;;;;5047238;28;20120;-65
2022/07/09 08:42:36;;;;;;;5.20;4.70;;;;;;;;;;5042693;28;20040;-65
2022/07/09 08:45:02;;;;;;;5.15;4.75;;;;;;;;;;5044614;28;20037;-65
2022/07/09 08:47:29;;;;;;;6.25;4.80;;;;;;;;;;5045647;28;20029;-65
2022/07/09 08:49:56;;;;;;;6.68;4.88;;;;;;;;;;5038783;28;20034;-65
2022/07/09 08:52:23;;;;;;;8.93;4.85;;;;;;;;;;5046537;28;20079;-65
2022/07/09 08:54:52;;;;;;;6.53;4.70;;;;;;;;;;5040061;28;20043;-65
2022/07/09 08:57:17;;;;;;;10.15;4.97;;;;;;;;;;5046523;28;20040;-66
2022/07/09 08:59:43;;;;;;;7.28;4.68;;;;;;;;;;5043769;28;20393;-66
2022/07/09 09:02:09;;;;;;;5.78;5.00;;;;;;;;;;5041780;28;20416;-65
2022/07/09 09:04:39;;;;;;;7.30;4.82;;;;;;;;;;5028594;28;20435;-65
2022/07/09 09:07:18;;;;;;;6.60;4.60;;;;;;;;;;5051054;28;20638;-66
2022/07/09 09:09:44;;;;;;;5.60;4.90;;;;;;;;;;5041094;28;20610;-65
2022/07/09 09:12:11;;;;;;;5.35;4.80;;;;;;;;;;5043850;28;20065;-65
2022/07/09 09:14:38;;;;;;;5.28;4.40;;;;;;;;;;5040418;28;20041;-65
2022/07/09 09:17:11;;;;;;;4.53;4.10;;;;;;;;;;5041542;28;20049;-65
2022/07/09 09:19:40;;;;;;;4.78;4.30;;;;;;;;;;5045833;28;20033;-66
2022/07/09 09:22:07;;;;;;;4.28;3.97;;;;;;;;;;5036104;28;20118;-65
2022/07/09 09:24:34;;;;;;;5.88;4.00;;;;;;;;;;5038654;28;20612;-65
2022/07/09 09:27:00;;;;;;;5.25;4.00;;;;;;;;;;5040557;28;20032;-65
2022/07/09 09:29:26;;;;;;;6.25;4.65;;;;;;;;;;5051432;28;20031;-66
2022/07/09 09:31:53;;;;;;;5.20;4.72;;;;;;;;;;5049189;28;20047;-65
2022/07/09 09:34:19;;;;;;;5.28;4.78;;;;;;;;;;5045807;28;20140;-65
2022/07/09 09:36:46;;;;;;;5.82;4.32;;;;;;;;;;5045221;28;20364;-65
2022/07/09 09:39:26;;;;;;;6.78;4.50;;;;;;;;;;5047371;28;20029;-66
2022/07/09 09:41:57;;;;;;;5.03;4.60;;;;;;;;;;5048501;28;20060;-65
2022/07/09 09:44:26;;;;;;;4.32;3.90;;;;;;;;;;5042412;28;20064;-66
2022/07/09 09:46:52;;;;;;;4.70;4.30;;;;;;;;;;5046054;28;20401;-65
2022/07/09 09:49:18;;;;;;;6.63;4.53;;;;;;;;;;5047714;28;20108;-66
2022/07/09 09:52:04;;;;;;;4.50;4.07;;;;;;;;;;5046698;28;20048;-65
2022/07/09 09:54:39;;;;;;;5.07;4.40;;;;;;;;;;5046165;28;20116;-65
2022/07/09 09:57:06;;;;;;;6.15;4.18;;;;;;;;;;5048987;28;20404;-66
2022/07/09 09:59:40;;;;;;;7.15;4.20;;;;;;;;;;5043947;28;20083;-65
2022/07/09 10:02:07;;;;;;;6.18;4.10;;;;;;;;;;5047136;28;20512;-65
2022/07/09 10:04:32;;;;;;;4.88;4.00;;;;;;;;;;5046776;28;20043;-66
2022/07/09 10:06:59;;;;;;;6.25;4.72;;;;;;;;;;5043191;28;20037;-65
2022/07/09 10:09:25;;;;;;;6.57;4.30;;;;;;;;;;5043497;28;20075;-66
2022/07/09 10:11:50;;;;;;;6.35;4.30;;;;;;;;;;5047160;28;20041;-65
2022/07/09 10:14:25;;;;;;;4.38;3.97;;;;;;;;;;5042808;28;20132;-66
2022/07/09 10:16:52;;;;;;;4.25;3.60;;;;;;;;;;5045077;28;20025;-65
2022/07/09 10:19:26;;;;;;;4.82;3.83;;;;;;;;;;5049914;28;20029;-66
2022/07/09 10:21:58;;;;;;;6.05;3.78;;;;;;;;;;5040656;28;20112;-65
2022/07/09 10:24:29;;;;;;;5.88;4.15;;;;;;;;;;5047282;28;20523;-66
2022/07/09 10:27:09;;;;;;;5.45;4.68;;;;;;;;;;5042637;28;20034;-65
2022/07/09 10:29:48;;;;;;;5.10;4.70;;;;;;;;;;5047366;28;20045;-66
2022/07/09 10:32:24;;;;;;;5.13;4.28;;;;;;;;;;5045293;28;20146;-66
2022/07/09 10:34:57;;;;;;;4.90;4.60;;;;;;;;;;5042374;28;20443;-66
2022/07/09 10:37:41;;;;;;;5.47;4.47;;;;;;;;;;5046225;28;20032;-66
2022/07/09 10:40:21;;;;;;;4.43;4.13;;;;;;;;;;5030513;28;20045;-66
2022/07/09 10:43:02;;;;;;;4.47;4.15;;;;;;;;;;5039168;28;20040;-66
2022/07/09 10:45:34;;;;;;;4.70;4.30;;;;;;;;;;5045482;28;21285;-66
2022/07/09 10:48:02;;;;;;;4.70;4.40;;;;;;;;;;5048375;28;20040;-66
2022/07/09 10:50:30;;;;;;;5.53;4.03;;;;;;;;;;5047704;28;20047;-66
2022/07/09 10:52:56;;;;;;;4.47;4.13;;;;;;;;;;5045437;28;20026;-65
2022/07/09 10:55:25;;;;;;;6.70;3.90;;;;;;;;;;5047127;28;20037;-65
2022/07/09 10:57:51;;;;;;;;;;;;;;;;;;5047000;28;20408;-66
2022/07/09 11:00:18;;;;;;;4.35;4.05;;;;;;;;;;5042327;28;19917;-66
2022/07/09 11:02:54;;;;;;;5.82;3.70;;;;;;;;;;5044560;28;20527;-66
2022/07/09 11:05:20;;;;;;;4.38;4.00;;;;;;;;;;5046751;28;20501;-66
2022/07/09 11:07:55;;;;;;;5.85;4.00;;;;;;;;;;5048845;28;20036;-65
2022/07/09 11:10:21;;;;;;;4.95;4.18;;;;;;;;;;5043110;28;20060;-65
2022/07/09 11:12:48;;;;;;;6.47;4.35;;;;;;;;;;5022655;28;20381;-65
2022/07/09 11:15:20;;;;;;;5.97;4.18;;;;;;;;;;5049527;28;20037;-65
2022/07/09 11:17:56;;;;;;;6.88;4.30;;;;;;;;;;5043497;28;20452;-65
2022/07/09 11:20:21;;;;;;;4.85;4.43;;;;;;;;;;5045094;28;20127;-65
2022/07/09 11:22:48;;;;;;;5.47;4.20;;;;;;;;;;5041888;28;20124;-65
2022/07/09 11:25:18;;;;;;;6.55;4.10;;;;;;;;;;5042536;28;20047;-65
2022/07/09 11:27:44;;;;;;;6.15;3.90;;;;;;;;;;5046737;28;20045;-65
2022/07/09 11:30:14;;;;;;;5.32;4.30;;;;;;;;;;5042809;28;20380;-65
2022/07/09 11:32:44;;;;;;;5.80;4.43;;;;;;;;;;5042990;28;20044;-65
2022/07/09 11:35:10;;;;;;;5.80;4.45;;;;;;;;;;5036145;28;20580;-65
2022/07/09 11:37:37;;;;;;;5.00;4.50;;;;;;;;;;5042920;28;20045;-65
2022/07/09 11:40:04;;;;;;;6.25;4.30;;;;;;;;;;5041972;28;20053;-65
2022/07/09 11:42:29;;;;;;;4.75;4.30;;;;;;;;;;5041205;28;20706;-65
2022/07/09 11:44:59;;;;;;;5.00;4.50;;;;;;;;;;5040991;28;20585;-65
2022/07/09 11:47:36;;;;;;;9.13;4.20;;;;;;;;;;5050310;28;20075;-65
2022/07/09 11:50:07;;;;;;;6.13;3.85;;;;;;;;;;5045248;28;20037;-65
2022/07/09 11:52:33;;;;;;;5.38;4.00;;;;;;;;;;5036268;28;20506;-65
2022/07/09 11:55:02;;;;;;;4.20;3.90;;;;;;;;;;5037871;28;20048;-65
2022/07/09 11:57:29;;;;;;;4.88;3.80;;;;;;;;;;5041806;28;20040;-65
2022/07/09 11:59:55;;;;;;;5.10;4.60;;;;;;;;;;5041697;28;20051;-65
2022/07/09 12:02:34;;;;;;;4.85;4.22;;;;;;;;;;5043064;28;20108;-65
2022/07/09 12:05:03;;;;;;;5.50;3.90;;;;;;;;;;5043763;28;20118;-66
2022/07/09 12:07:29;;;;;;;4.47;4.07;;;;;;;;;;5039880;28;20049;-65
2022/07/09 12:10:05;;;;;;;4.30;3.92;;;;;;;;;;5038095;28;20346;-66
2022/07/09 12:12:31;;;;;;;4.88;4.40;;;;;;;;;;5039838;28;20037;-64
2022/07/09 12:14:57;;;;;;;4.30;3.70;;;;;;;;;;5048674;28;20052;-65
2022/07/09 12:17:26;;;;;;;4.15;3.83;;;;;;;;;;5047371;28;20040;-66
2022/07/09 12:19:52;;;;;;;4.78;4.03;;;;;;;;;;5042703;28;20072;-66
2022/07/09 12:22:19;;;;;;;4.38;3.92;;;;;;;;;;5040409;28;20112;-66
2022/07/09 12:24:44;;;;;;;6.05;4.00;;;;;;;;;;5043001;28;20517;-66
2022/07/09 12:27:10;;;;;;;4.38;4.03;;;;;;;;;;5042778;28;20167;-66
2022/07/09 12:29:36;;;;;;;6.07;4.00;;;;;;;;;;5041732;28;20578;-66
2022/07/09 12:32:01;;;;;;;4.82;4.07;;;;;;;;;;5043392;28;20037;-66
2022/07/09 12:34:27;;;;;;;7.25;4.03;;;;;;;;;;5043660;28;20037;-66
2022/07/09 12:36:53;;;;;;;6.03;4.32;;;;;;;;;;5038551;28;20655;-66
2022/07/09 12:39:26;;;;;;;4.45;4.15;;;;;;;;;;5038805;28;20512;-66
2022/07/09 12:41:51;;;;;;;5.03;4.22;;;;;;;;;;5024484;28;20080;-66
2022/07/09 12:44:17;;;;;;;4.30;3.90;;;;;;;;;;5038725;28;20037;-66
2022/07/09 12:46:42;;;;;;;4.43;4.03;;;;;;;;;;5041641;28;20041;-66
2022/07/09 12:49:08;;;;;;;5.03;3.95;;;;;;;;;;5038871;28;20071;-66
2022/07/09 12:51:34;;;;;;;5.15;4.25;;;;;;;;;;5048578;28;20055;-65
2022/07/09 12:54:00;;;;;;;4.85;4.55;;;;;;;;;;5039284;28;20068;-65
2022/07/09 12:56:26;;;;;;;4.50;4.10;;;;;;;;;;5042712;28;20542;-65
2022/07/09 12:58:52;;;;;;;4.43;4.20;;;;;;;;;;5039742;28;20033;-65
2022/07/09 13:01:17;;;;;;;5.10;4.65;;;;;;;;;;5043838;28;20029;-66
2022/07/09 13:03:43;;;;;;;6.32;4.63;;;;;;;;;;5040639;28;20103;-65
2022/07/09 13:06:30;;;;;;;8.18;4.65;;;;;;;;;;5045890;28;20044;-65
2022/07/09 13:08:54;;;;;;;6.90;4.50;;;;;;;;;;5041855;28;20285;-65
2022/07/09 13:11:20;;;;;;;6.03;4.40;;;;;;;;;;5046662;28;20037;-65
2022/07/09 13:13:46;;;;;;;5.00;4.57;;;;;;;;;;5044549;28;20041;-65
2022/07/09 13:16:14;;;;;;;4.82;4.43;;;;;;;;;;5045873;28;20533;-65
2022/07/09 13:18:40;;;;;;;5.57;4.50;;;;;;;;;;5044444;28;20041;-65
2022/07/09 13:21:06;;;;;;;6.35;4.38;;;;;;;;;;5044995;28;20752;-65
2022/07/09 13:23:31;;;;;;;5.28;4.10;;;;;;;;;;5042221;28;20035;-65
2022/07/09 13:25:58;;;;;;;4.57;4.20;;;;;;;;;;5045224;28;20041;-65
2022/07/09 13:28:23;;;;;;;4.03;3.72;;;;;;;;;;5049206;28;20479;-65
2022/07/09 13:30:49;;;;;;;4.60;4.10;;;;;;;;;;5044164;28;20032;-65
2022/07/09 13:33:15;;;;;;;4.45;4.05;;;;;;;;;;5045007;28;20436;-65
2022/07/09 13:35:41;;;;;;;4.55;4.15;;;;;;;;;;5039635;28;20084;-65
2022/07/09 13:38:06;;;;;;;4.82;4.53;;;;;;;;;;5047013;28;20079;-65
2022/07/09 13:40:32;;;;;;;4.47;4.20;;;;;;;;;;5039571;28;20579;-65
2022/07/09 13:42:57;;;;;;;4.80;4.40;;;;;;;;;;5044368;28;20471;-64
2022/07/09 13:45:23;;;;;;;4.50;4.03;;;;;;;;;;5037964;28;20035;-65
2022/07/09 13:47:49;;;;;;;5.82;4.75;;;;;;;;;;5044396;28;20201;-65
2022/07/09 13:50:15;;;;;;;4.70;4.40;;;;;;;;;;5043135;28;20522;-67
2022/07/09 13:52:40;;;;;;;7.07;4.30;;;;;;;;;;5042779;28;20510;-66
2022/07/09 13:55:23;;;;;;;5.38;4.43;;;;;;;;;;5041769;28;20037;-66
2022/07/09 13:57:49;;;;;;;6.50;4.57;;;;;;;;;;5039338;28;20420;-65
2022/07/09 14:00:15;;;;;;;6.78;4.35;;;;;;;;;;5048018;28;20045;-66
2022/07/09 14:02:40;;;;;;;4.93;4.45;;;;;;;;;;5037518;28;20041;-66
2022/07/09 14:05:06;;;;;;;5.75;4.35;;;;;;;;;;5043135;28;20041;-66
2022/07/09 14:07:32;;;;;;;4.93;4.53;;;;;;;;;;5041209;28;20036;-65
2022/07/09 14:09:58;;;;;;;4.50;4.20;;;;;;;;;;5043686;28;20059;-66
2022/07/09 14:12:24;;;;;;;4.72;4.15;;;;;;;;;;5048308;28;20439;-66
2022/07/09 14:14:51;;;;;;;4.97;4.57;;;;;;;;;;5046235;28;20044;-66
2022/07/09 14:17:16;;;;;;;4.80;4.40;;;;;;;;;;5047442;28;20044;-65
2022/07/09 14:19:42;;;;;;;4.80;4.40;;;;;;;;;;5048531;28;20041;-66
2022/07/09 14:22:08;;;;;;;5.50;4.68;;;;;;;;;;5050641;28;20047;-65
2022/07/09 14:24:34;;;;;;;4.47;4.18;;;;;;;;;;5045446;28;20052;-65
2022/07/09 14:27:00;;;;;;;5.30;4.38;;;;;;;;;;5047011;28;20083;-66
2022/07/09 14:29:31;;;;;;;5.95;4.40;;;;;;;;;;5041978;28;20061;-66
2022/07/09 14:31:57;;;;;;;4.80;4.40;;;;;;;;;;5045144;28;20596;-66
2022/07/09 14:34:22;;;;;;;4.47;4.18;;;;;;;;;;5045090;28;20495;-65
2022/07/09 14:36:51;;;;;;;4.43;4.13;;;;;;;;;;5046730;28;20095;-66
2022/07/09 14:39:18;;;;;;;5.93;3.90;;;;;;;;;;5042453;28;20445;-66
2022/07/09 14:41:44;;;;;;;4.60;4.05;;;;;;;;;;5047379;28;20557;-65